Time;durP1;ratioP1;P1;durP2;ratioP2;P2;SDS_P1;SDS_P2;PMS_P1;PMS_P2;Temp;Humidity;BMP_temperature;BMP_pressure;BME280_temperature;BME280_humidity;BME280_pressure;Samples;Min_cycle;Max_cycle;Signal;HPM_P1;HPM_P2
2021/06/10 00:01:07;;;;;;;6.60;5.97;;;13.90;99.90;;;;;;5048643;28;20166;-65
2021/06/10 00:03:34;;;;;;;6.15;5.55;;;13.90;99.90;;;;;;5016621;28;20110;-65
2021/06/10 00:06:01;;;;;;;6.90;4.95;;;13.90;99.90;;;;;;5019821;28;20131;-66
2021/06/10 00:08:34;;;;;;;5.88;5.38;;;13.80;99.90;;;;;;5016022;28;20614;-66
2021/06/10 00:11:01;;;;;;;7.13;4.83;;;13.80;99.90;;;;;;5015670;28;20507;-65
2021/06/10 00:13:28;;;;;;;6.60;5.90;;;13.80;99.90;;;;;;5016862;28;20058;-66
2021/06/10 00:15:55;;;;;;;5.57;5.07;;;13.80;99.90;;;;;;5016470;28;20142;-66
2021/06/10 00:18:22;;;;;;;6.82;6.20;;;13.70;99.90;;;;;;5015369;28;24993;-66
2021/06/10 00:20:49;;;;;;;5.80;5.22;;;13.70;99.90;;;;;;5018085;28;20085;-66
2021/06/10 00:23:16;;;;;;;6.47;5.82;;;13.60;99.90;;;;;;5016921;28;20080;-65
2021/06/10 00:25:44;;;;;;;5.95;5.47;;;13.60;99.90;;;;;;5017659;28;20053;-66
2021/06/10 00:28:11;;;;;;;5.75;5.25;;;13.60;99.90;;;;;;5016288;28;20144;-66
2021/06/10 00:30:38;;;;;;;6.10;5.53;;;13.60;99.90;;;;;;5020328;28;20061;-66
2021/06/10 00:33:05;;;;;;;5.53;5.03;;;13.60;99.90;;;;;;5017695;28;20045;-66
2021/06/10 00:35:33;;;;;;;6.20;5.70;;;13.60;99.90;;;;;;5014751;28;20763;-65
2021/06/10 00:38:00;;;;;;;5.22;4.57;;;13.50;99.90;;;;;;5013794;28;20155;-65
2021/06/10 00:40:29;;;;;;;5.07;4.72;;;13.50;99.90;;;;;;5016330;28;20085;-66
2021/06/10 00:42:57;;;;;;;6.55;6.03;;;13.50;99.90;;;;;;5017324;28;20136;-66
2021/06/10 00:45:25;;;;;;;6.80;5.80;;;13.50;99.90;;;;;;5021404;28;20077;-66
2021/06/10 00:47:53;;;;;;;5.25;4.85;;;13.50;99.90;;;;;;5019563;28;20529;-66
2021/06/10 00:50:24;;;;;;;6.43;5.82;;;13.40;99.90;;;;;;5019003;28;21497;-65
2021/06/10 00:52:51;;;;;;;6.22;5.63;;;13.40;99.90;;;;;;5016100;28;20161;-66
2021/06/10 00:55:19;;;;;;;5.47;4.93;;;13.40;99.90;;;;;;5016901;28;20069;-66
2021/06/10 00:57:45;;;;;;;6.10;5.55;;;13.40;99.90;;;;;;5012943;28;20118;-66
2021/06/10 01:00:14;;;;;;;6.57;5.97;;;13.40;99.90;;;;;;5016836;28;20057;-65
2021/06/10 01:02:41;;;;;;;6.43;4.88;;;13.40;99.90;;;;;;5016552;28;20034;-65
2021/06/10 01:05:09;;;;;;;7.13;5.82;;;13.30;99.90;;;;;;5015831;28;20540;-65
2021/06/10 01:07:48;;;;;;;5.90;5.40;;;13.30;99.90;;;;;;5014477;28;20101;-65
2021/06/10 01:10:28;;;;;;;5.43;4.93;;;13.30;99.90;;;;;;5017278;28;20063;-66
2021/06/10 01:13:14;;;;;;;5.35;4.90;;;13.30;99.90;;;;;;5017157;28;21668;-66
2021/06/10 01:15:42;;;;;;;5.70;4.80;;;13.30;99.90;;;;;;5015233;28;20114;-65
2021/06/10 01:18:12;;;;;;;4.82;4.40;;;13.30;99.90;;;;;;5018871;28;20099;-66
2021/06/10 01:20:42;;;;;;;5.70;5.18;;;13.30;99.90;;;;;;5019029;28;20572;-66
2021/06/10 01:23:39;;;;;;;5.78;5.28;;;13.30;99.90;;;;;;5020928;28;20137;-66
2021/06/10 01:26:28;;;;;;;5.88;4.47;;;13.30;99.90;;;;;;5018224;28;20150;-66
2021/06/10 01:28:59;;;;;;;27.17;6.75;;;13.30;99.90;;;;;;5021312;28;20037;-65
2021/06/10 01:31:27;;;;;;;5.20;4.75;;;13.30;99.90;;;;;;5019447;28;20077;-65
2021/06/10 01:33:57;;;;;;;9.00;4.15;;;13.30;99.90;;;;;;5020036;28;20064;-66
2021/06/10 01:36:27;;;;;;;5.32;4.90;;;13.30;99.90;;;;;;5018954;28;20053;-65
2021/06/10 01:38:58;;;;;;;5.85;5.35;;;13.40;99.90;;;;;;5021246;28;20072;-66
2021/06/10 01:41:27;;;;;;;5.13;4.75;;;13.30;99.90;;;;;;5019673;28;20081;-66
2021/06/10 01:43:57;;;;;;;5.68;5.25;;;13.30;99.90;;;;;;5019462;28;20064;-66
2021/06/10 01:46:26;;;;;;;5.10;4.67;;;13.30;99.90;;;;;;5018094;28;20617;-66
2021/06/10 01:48:54;;;;;;;7.55;4.70;;;13.30;99.90;;;;;;5020445;28;20149;-65
2021/06/10 01:51:23;;;;;;;5.55;5.05;;;13.20;99.90;;;;;;5018763;28;20147;-66
2021/06/10 01:53:51;;;;;;;5.53;4.30;;;13.20;99.90;;;;;;5018973;28;20144;-66
2021/06/10 01:56:22;;;;;;;5.47;5.07;;;13.20;99.90;;;;;;5018970;28;20586;-66
2021/06/10 01:58:51;;;;;;;5.07;4.68;;;13.20;99.90;;;;;;5020819;28;20076;-65
2021/06/10 02:01:21;;;;;;;5.68;5.13;;;13.20;99.90;;;;;;5019674;28;20072;-65
2021/06/10 02:03:49;;;;;;;5.43;4.93;;;13.10;99.90;;;;;;5018948;28;20681;-65
2021/06/10 02:06:18;;;;;;;5.55;5.05;;;13.10;99.90;;;;;;5018555;28;20069;-65
2021/06/10 02:08:47;;;;;;;7.43;5.38;;;13.10;99.90;;;;;;5018810;28;20473;-66
2021/06/10 02:11:16;;;;;;;6.72;4.93;;;13.10;99.90;;;;;;5050209;28;20203;-66
2021/06/10 02:13:44;;;;;;;6.18;5.20;;;13.00;99.90;;;;;;5016680;28;20077;-66
2021/06/10 02:16:14;;;;;;;5.95;5.15;;;13.00;99.90;;;;;;5016396;28;20266;-65
2021/06/10 02:18:44;;;;;;;6.13;5.63;;;13.00;99.90;;;;;;5018714;28;20049;-66
2021/06/10 02:21:11;;;;;;;5.80;5.20;;;13.00;99.90;;;;;;5017580;28;20735;-66
2021/06/10 02:23:40;;;;;;;7.68;5.40;;;13.00;99.90;;;;;;5014973;28;20081;-66
2021/06/10 02:26:08;;;;;;;5.38;4.70;;;13.00;99.90;;;;;;5018495;28;20084;-66
2021/06/10 02:28:36;;;;;;;5.55;5.05;;;13.00;99.90;;;;;;5017507;28;20053;-66
2021/06/10 02:31:05;;;;;;;5.53;5.03;;;13.00;99.90;;;;;;5019214;28;20213;-65
2021/06/10 02:33:33;;;;;;;13.25;5.55;;;13.00;99.90;;;;;;5015629;28;20053;-66
2021/06/10 02:36:00;;;;;;;5.90;4.68;;;13.00;99.90;;;;;;5019948;28;20045;-66
2021/06/10 02:38:31;;;;;;;5.68;4.78;;;13.00;99.90;;;;;;5017385;28;20491;-66
2021/06/10 02:41:00;;;;;;;5.03;4.63;;;13.00;99.90;;;;;;5019751;28;20135;-66
2021/06/10 02:43:33;;;;;;;4.70;4.30;;;13.00;99.90;;;;;;5017731;28;20625;-66
2021/06/10 02:46:02;;;;;;;8.10;4.78;;;13.00;99.90;;;;;;5017026;28;20077;-66
2021/06/10 02:48:33;;;;;;;6.28;5.78;;;13.10;99.90;;;;;;5018708;28;20208;-65
2021/06/10 02:51:00;;;;;;;5.80;5.40;;;13.00;99.90;;;;;;5018399;28;20120;-65
2021/06/10 02:53:32;;;;;;;5.68;5.15;;;13.00;99.90;;;;;;5017332;28;20142;-66
2021/06/10 02:56:01;;;;;;;4.93;4.55;;;13.10;99.90;;;;;;5011384;28;20134;-66
2021/06/10 02:58:30;;;;;;;5.10;4.70;;;13.10;99.90;;;;;;5018967;28;20072;-66
2021/06/10 03:00:58;;;;;;;5.95;5.43;;;13.10;99.90;;;;;;5017605;28;20053;-65
2021/06/10 03:03:26;;;;;;;6.13;5.53;;;13.10;99.90;;;;;;5018442;28;20061;-66
2021/06/10 03:05:56;;;;;;;6.28;5.68;;;13.20;99.90;;;;;;5016435;28;20152;-66
2021/06/10 03:08:24;;;;;;;;;;;13.20;99.90;;;;;;5019347;28;20144;-66
2021/06/10 03:10:51;;;;;;;4.68;4.28;;;13.30;99.90;;;;;;5017266;28;19925;-66
2021/06/10 03:13:23;;;;;;;6.32;5.68;;;13.30;99.90;;;;;;5017160;28;20470;-65
2021/06/10 03:15:51;;;;;;;5.53;5.07;;;13.30;99.90;;;;;;5011241;28;20072;-65
2021/06/10 03:18:19;;;;;;;7.07;5.30;;;13.40;99.90;;;;;;5014064;28;20044;-66
2021/06/10 03:20:47;;;;;;;5.65;5.15;;;13.40;99.90;;;;;;5012955;28;20751;-65
2021/06/10 03:23:14;;;;;;;6.45;5.90;;;13.50;99.90;;;;;;5013571;28;20132;-66
2021/06/10 03:25:42;;;;;;;5.93;5.43;;;13.50;99.90;;;;;;5013829;28;20065;-66
2021/06/10 03:28:10;;;;;;;7.28;6.60;;;13.60;99.90;;;;;;5017970;28;20402;-66
2021/06/10 03:30:37;;;;;;;7.30;6.60;;;13.60;99.90;;;;;;5018728;28;20485;-66
2021/06/10 03:33:06;;;;;;;8.32;7.20;;;13.70;99.90;;;;;;5015784;28;20725;-65
2021/06/10 03:35:35;;;;;;;6.75;6.22;;;13.80;99.90;;;;;;5015553;28;21125;-65
2021/06/10 03:38:04;;;;;;;10.18;7.38;;;13.90;99.90;;;;;;5016438;28;20055;-66
2021/06/10 03:40:32;;;;;;;10.30;8.15;;;14.10;99.90;;;;;;5016329;28;20099;-66
2021/06/10 03:43:01;;;;;;;9.77;8.88;;;14.30;99.90;;;;;;5016424;28;20073;-65
2021/06/10 03:45:28;;;;;;;8.15;7.28;;;14.40;99.90;;;;;;5017598;28;20166;-66
2021/06/10 03:47:56;;;;;;;7.88;7.00;;;14.50;99.90;;;;;;5013837;28;20057;-66
2021/06/10 03:50:24;;;;;;;9.77;8.35;;;14.70;99.90;;;;;;5018659;28;20104;-65
2021/06/10 03:52:51;;;;;;;10.32;8.02;;;14.90;99.90;;;;;;5015387;28;20054;-65
2021/06/10 03:55:18;;;;;;;8.07;7.38;;;15.10;99.90;;;;;;5018094;28;20133;-66
2021/06/10 03:57:45;;;;;;;9.90;9.00;;;15.10;99.90;;;;;;5012800;28;20090;-65
2021/06/10 04:00:12;;;;;;;8.20;7.50;;;15.20;99.90;;;;;;5018220;28;20125;-66
2021/06/10 04:02:39;;;;;;;7.20;6.20;;;15.30;99.90;;;;;;5015832;28;20499;-66
2021/06/10 04:05:08;;;;;;;8.48;7.57;;;15.40;99.90;;;;;;5017763;28;20163;-65
2021/06/10 04:07:35;;;;;;;11.00;9.88;;;15.50;99.90;;;;;;5013975;28;20180;-65
2021/06/10 04:10:04;;;;;;;8.90;7.70;;;15.50;99.90;;;;;;5020289;28;20100;-66
2021/06/10 04:12:31;;;;;;;9.20;7.70;;;15.60;99.90;;;;;;5019106;28;20064;-66
2021/06/10 04:14:58;;;;;;;8.77;7.47;;;15.70;99.90;;;;;;5025262;28;20439;-66
2021/06/10 04:17:25;;;;;;;9.70;7.80;;;15.80;99.90;;;;;;5018949;28;20492;-65
2021/06/10 04:19:52;;;;;;;7.53;6.85;;;15.90;99.90;;;;;;5020053;28;20045;-66
2021/06/10 04:22:19;;;;;;;8.77;7.97;;;16.00;99.90;;;;;;5020131;28;20049;-66
2021/06/10 04:24:46;;;;;;;11.05;7.68;;;16.10;99.90;;;;;;5021626;28;20114;-66
2021/06/10 04:27:13;;;;;;;9.85;8.15;;;16.20;99.90;;;;;;5019358;28;20050;-65
2021/06/10 04:29:40;;;;;;;7.80;7.10;;;16.20;99.90;;;;;;5018450;28;20053;-66
2021/06/10 04:32:07;;;;;;;6.65;5.35;;;16.30;99.90;;;;;;5018837;28;20124;-66
2021/06/10 04:34:34;;;;;;;4.88;4.50;;;16.30;99.90;;;;;;5019465;28;20044;-66
2021/06/10 04:37:01;;;;;;;5.30;4.80;;;16.40;99.90;;;;;;5018009;28;20169;-66
2021/06/10 04:39:28;;;;;;;6.15;5.13;;;16.50;99.90;;;;;;5019950;28;20136;-66
2021/06/10 04:41:55;;;;;;;5.85;4.18;;;16.50;99.90;;;;;;5016419;28;20076;-66
2021/06/10 04:44:22;;;;;;;10.55;4.95;;;16.60;99.90;;;;;;5018727;28;20421;-66
2021/06/10 04:46:49;;;;;;;4.85;4.35;;;16.60;99.90;;;;;;5017683;28;20053;-66
2021/06/10 04:49:15;;;;;;;8.48;3.75;;;16.70;99.90;;;;;;5020248;28;20136;-65
2021/06/10 04:51:42;;;;;;;5.60;4.95;;;16.70;99.90;;;;;;5014063;28;20625;-66
2021/06/10 04:54:09;;;;;;;4.13;3.78;;;16.80;99.90;;;;;;5019407;28;20123;-65
2021/06/10 04:56:36;;;;;;;8.98;4.72;;;16.80;99.90;;;;;;5017785;28;20156;-65
2021/06/10 04:59:03;;;;;;;6.05;4.18;;;16.80;99.90;;;;;;5019397;28;20118;-65
2021/06/10 05:01:30;;;;;;;6.03;4.38;;;16.80;99.90;;;;;;5012433;28;20049;-66
2021/06/10 05:03:57;;;;;;;7.15;5.10;;;16.80;99.90;;;;;;5017733;28;20055;-65
2021/06/10 05:06:24;;;;;;;4.32;3.92;;;16.90;99.90;;;;;;5017805;28;20052;-65
2021/06/10 05:08:51;;;;;;;4.47;3.92;;;16.90;99.90;;;;;;5019276;28;20073;-66
2021/06/10 05:11:18;;;;;;;6.35;4.05;;;16.90;99.90;;;;;;5017972;28;20049;-66
2021/06/10 05:13:45;;;;;;;4.35;3.85;;;16.90;99.90;;;;;;5018366;28;20077;-65
2021/06/10 05:16:12;;;;;;;5.32;3.95;;;17.00;99.90;;;;;;5048107;28;20049;-66
2021/06/10 05:18:39;;;;;;;5.47;3.70;;;17.00;99.90;;;;;;5020223;28;20042;-66
2021/06/10 05:21:09;;;;;;;5.80;3.90;;;17.00;99.90;;;;;;5017045;28;20053;-65
2021/06/10 05:23:38;;;;;;;4.00;3.70;;;17.00;99.90;;;;;;5018128;28;20076;-65
2021/06/10 05:26:05;;;;;;;4.18;3.83;;;17.00;99.90;;;;;;5017665;28;20073;-66
2021/06/10 05:28:35;;;;;;;7.35;4.50;;;17.00;99.90;;;;;;5020078;28;20045;-67
2021/06/10 05:31:07;;;;;;;4.25;3.85;;;17.00;99.90;;;;;;5016868;28;20082;-67
2021/06/10 05:33:35;;;;;;;4.97;3.15;;;17.10;99.90;;;;;;5016668;28;20077;-66
2021/06/10 05:36:04;;;;;;;4.82;3.72;;;17.10;99.90;;;;;;5016839;28;21514;-66
2021/06/10 05:38:31;;;;;;;4.60;4.20;;;17.10;99.90;;;;;;5016164;28;20099;-66
2021/06/10 05:40:58;;;;;;;5.15;3.95;;;17.10;99.90;;;;;;5015202;28;21444;-65
2021/06/10 05:43:25;;;;;;;4.93;4.45;;;17.10;99.90;;;;;;5018348;28;20474;-65
2021/06/10 05:45:52;;;;;;;6.45;4.72;;;17.20;99.90;;;;;;5013672;28;20057;-65
2021/06/10 05:48:19;;;;;;;5.47;4.22;;;17.20;99.90;;;;;;5017118;28;20077;-66
2021/06/10 05:50:46;;;;;;;7.90;4.15;;;17.20;99.90;;;;;;5015290;28;20147;-66
2021/06/10 05:53:17;;;;;;;6.38;4.07;;;17.20;99.90;;;;;;5020217;28;20744;-65
2021/06/10 05:55:46;;;;;;;5.75;4.07;;;17.30;99.90;;;;;;5016462;28;20041;-66
2021/06/10 05:58:14;;;;;;;8.00;4.32;;;17.30;99.90;;;;;;5020731;28;20081;-65
2021/06/10 06:00:41;;;;;;;3.88;3.58;;;17.30;99.90;;;;;;5018921;28;20052;-65
2021/06/10 06:03:09;;;;;;;5.65;3.53;;;17.30;99.90;;;;;;5020613;28;20049;-64
2021/06/10 06:05:36;;;;;;;5.95;3.67;;;17.30;99.90;;;;;;5018573;28;20107;-65
2021/06/10 06:08:04;;;;;;;4.65;3.92;;;17.30;99.90;;;;;;5018860;28;20060;-65
2021/06/10 06:10:31;;;;;;;4.40;4.07;;;17.20;99.90;;;;;;5019963;28;20103;-65
2021/06/10 06:13:01;;;;;;;6.57;4.60;;;17.30;99.90;;;;;;5019460;28;20128;-65
2021/06/10 06:15:29;;;;;;;5.85;4.15;;;17.30;99.90;;;;;;5019313;28;20392;-66
2021/06/10 06:17:56;;;;;;;8.30;4.00;;;17.30;99.90;;;;;;5017756;28;20148;-65
2021/06/10 06:20:24;;;;;;;9.05;4.30;;;17.40;99.90;;;;;;5020481;28;20103;-65
2021/06/10 06:22:51;;;;;;;10.52;3.65;;;17.40;99.90;;;;;;5017197;28;20053;-65
2021/06/10 06:25:20;;;;;;;6.32;4.00;;;17.40;99.90;;;;;;5020713;28;20149;-66
2021/06/10 06:27:47;;;;;;;4.90;3.78;;;17.30;99.90;;;;;;5016647;28;20117;-65
2021/06/10 06:30:16;;;;;;;4.43;3.92;;;17.30;99.90;;;;;;5020776;28;20123;-65
2021/06/10 06:32:46;;;;;;;8.10;4.00;;;17.30;99.90;;;;;;5017336;28;20103;-65
2021/06/10 06:35:13;;;;;;;4.05;3.65;;;17.30;99.90;;;;;;5021452;28;20049;-65
2021/06/10 06:37:40;;;;;;;4.00;2.95;;;17.40;99.90;;;;;;5016124;28;20052;-64
2021/06/10 06:40:08;;;;;;;4.93;3.97;;;17.40;99.90;;;;;;5019380;28;20045;-66
2021/06/10 06:42:36;;;;;;;6.50;3.97;;;17.50;99.90;;;;;;5018407;28;20119;-66
2021/06/10 06:45:05;;;;;;;9.52;3.60;;;17.50;99.90;;;;;;5019939;28;20087;-66
2021/06/10 06:47:33;;;;;;;6.28;4.68;;;17.50;99.90;;;;;;5017517;28;20152;-65
2021/06/10 06:50:00;;;;;;;5.15;4.00;;;17.50;99.90;;;;;;5018949;28;20111;-66
2021/06/10 06:52:27;;;;;;;5.05;4.00;;;17.50;99.90;;;;;;5018964;28;20636;-66
2021/06/10 06:54:54;;;;;;;6.43;4.10;;;17.50;99.90;;;;;;5012322;28;20140;-66
2021/06/10 06:57:21;;;;;;;7.07;4.25;;;17.50;99.90;;;;;;5017710;28;20454;-66
2021/06/10 06:59:51;;;;;;;5.93;4.15;;;17.50;99.90;;;;;;5014951;28;20511;-65
2021/06/10 07:02:18;;;;;;;6.43;5.25;;;17.50;99.90;;;;;;5017874;28;20147;-66
2021/06/10 07:04:45;;;;;;;5.15;4.68;;;17.40;99.90;;;;;;5015668;28;20148;-65
2021/06/10 07:07:12;;;;;;;6.72;3.90;;;17.40;99.90;;;;;;5018083;28;20080;-65
2021/06/10 07:09:39;;;;;;;5.95;4.43;;;17.50;99.90;;;;;;5014285;28;20049;-66
2021/06/10 07:12:07;;;;;;;5.07;4.55;;;17.60;99.90;;;;;;5016088;28;20049;-65
2021/06/10 07:14:36;;;;;;;6.78;3.85;;;17.60;99.90;;;;;;5015846;28;20061;-65
2021/06/10 07:17:03;;;;;;;8.63;4.97;;;17.70;99.90;;;;;;5017050;28;20431;-66
2021/06/10 07:19:30;;;;;;;16.42;5.70;;;17.60;99.90;;;;;;5014208;28;20084;-66
2021/06/10 07:21:57;;;;;;;6.82;6.05;;;17.60;99.90;;;;;;5049124;28;20049;-66
2021/06/10 07:24:40;;;;;;;7.88;5.32;;;17.50;99.90;;;;;;5012891;28;20132;-66
2021/06/10 07:27:09;;;;;;;5.25;4.85;;;17.60;99.90;;;;;;5013109;28;20450;-65
2021/06/10 07:29:36;;;;;;;7.97;5.82;;;17.50;99.90;;;;;;5010878;28;20049;-65
2021/06/10 07:32:03;;;;;;;6.13;4.97;;;17.50;99.90;;;;;;5012794;28;20696;-65
2021/06/10 07:34:31;;;;;;;11.80;5.30;;;17.50;99.90;;;;;;5011672;28;20052;-65
2021/06/10 07:36:58;;;;;;;7.35;5.45;;;17.50;99.90;;;;;;5015037;28;20157;-66
2021/06/10 07:39:24;;;;;;;5.18;4.63;;;17.50;99.90;;;;;;5016677;28;20042;-65
2021/06/10 07:41:51;;;;;;;8.82;5.53;;;17.60;99.90;;;;;;5015275;28;20073;-66
2021/06/10 07:44:18;;;;;;;5.35;4.82;;;17.70;99.90;;;;;;5017288;28;20060;-66
2021/06/10 07:46:45;;;;;;;13.32;5.55;;;17.80;99.90;;;;;;5022260;28;20443;-66
2021/06/10 07:49:12;;;;;;;5.50;4.90;;;17.80;99.90;;;;;;5020050;28;20053;-65
2021/06/10 07:51:39;;;;;;;7.13;4.97;;;17.70;99.90;;;;;;5021387;28;20049;-65
2021/06/10 07:54:06;;;;;;;9.95;6.40;;;17.80;99.90;;;;;;5019243;28;20077;-66
2021/06/10 07:56:33;;;;;;;4.55;4.13;;;17.80;99.90;;;;;;5021261;28;21350;-65
2021/06/10 07:59:00;;;;;;;6.03;5.28;;;18.00;99.90;;;;;;5019645;28;20590;-65
2021/06/10 08:01:27;;;;;;;6.10;5.07;;;18.00;99.90;;;;;;5018446;28;20175;-65
2021/06/10 08:03:55;;;;;;;6.00;5.50;;;18.00;99.90;;;;;;5017401;28;20490;-66
2021/06/10 08:06:22;;;;;;;6.70;4.53;;;18.00;99.90;;;;;;5017169;28;20397;-66
2021/06/10 08:08:49;;;;;;;5.45;4.78;;;17.90;99.90;;;;;;5019067;28;20100;-66
2021/06/10 08:11:17;;;;;;;6.10;4.57;;;17.90;99.90;;;;;;5018911;28;20041;-65
2021/06/10 08:13:44;;;;;;;7.50;5.25;;;17.90;99.90;;;;;;5018478;28;20042;-65
2021/06/10 08:16:11;;;;;;;9.68;5.28;;;17.90;99.90;;;;;;5017566;28;20099;-66
2021/06/10 08:18:38;;;;;;;6.72;4.40;;;18.00;99.90;;;;;;5020577;28;20065;-66
2021/06/10 08:21:05;;;;;;;5.15;4.43;;;18.10;99.90;;;;;;5018198;28;20041;-65
2021/06/10 08:23:32;;;;;;;4.90;4.40;;;18.10;99.90;;;;;;5018653;28;20041;-66
2021/06/10 08:26:03;;;;;;;5.00;4.60;;;18.30;99.90;;;;;;5018706;28;20108;-65
2021/06/10 08:28:31;;;;;;;5.13;4.10;;;18.30;99.90;;;;;;5019935;28;20049;-66
2021/06/10 08:30:58;;;;;;;6.97;4.20;;;18.30;99.90;;;;;;5019280;28;20053;-65
2021/06/10 08:33:26;;;;;;;7.82;5.18;;;18.20;99.90;;;;;;5021188;28;20523;-66
2021/06/10 08:35:53;;;;;;;6.30;4.22;;;18.30;99.90;;;;;;5019045;28;20073;-65
2021/06/10 08:38:20;;;;;;;5.85;4.20;;;18.10;99.90;;;;;;5021437;28;20053;-65
2021/06/10 08:40:47;;;;;;;3.90;3.47;;;18.10;99.90;;;;;;5019206;28;20084;-65
2021/06/10 08:43:14;;;;;;;5.57;3.58;;;18.00;99.90;;;;;;5020653;28;20053;-65
2021/06/10 08:45:44;;;;;;;5.05;3.80;;;18.10;99.90;;;;;;5018000;28;20525;-66
2021/06/10 08:48:11;;;;;;;5.90;4.50;;;18.00;99.90;;;;;;5021178;28;20168;-67
2021/06/10 08:50:39;;;;;;;5.32;3.83;;;18.00;99.90;;;;;;5020746;28;20053;-65
2021/06/10 08:53:08;;;;;;;5.05;3.67;;;18.10;99.90;;;;;;5019105;28;20426;-66
2021/06/10 08:55:35;;;;;;;4.50;3.45;;;18.10;99.90;;;;;;5019054;28;20053;-66
2021/06/10 08:58:02;;;;;;;5.85;3.55;;;18.10;99.90;;;;;;5019815;28;20128;-65
2021/06/10 09:00:30;;;;;;;4.32;3.83;;;17.90;99.90;;;;;;5020708;28;20037;-65
2021/06/10 09:02:59;;;;;;;6.03;3.97;;;17.90;99.90;;;;;;5018732;28;20485;-67
2021/06/10 09:05:29;;;;;;;4.85;3.65;;;18.10;99.90;;;;;;5020372;28;20466;-66
2021/06/10 09:07:58;;;;;;;4.90;3.28;;;18.30;99.90;;;;;;5017085;28;20054;-66
2021/06/10 09:10:32;;;;;;;6.18;4.03;;;18.40;99.90;;;;;;5019745;28;20095;-66
2021/06/10 09:13:05;;;;;;;7.82;4.55;;;18.40;99.90;;;;;;5016934;28;20148;-67
2021/06/10 09:15:35;;;;;;;5.72;3.78;;;18.50;99.90;;;;;;5018320;28;20111;-66
2021/06/10 09:18:02;;;;;;;;;;;18.50;99.90;;;;;;5016175;28;20049;-65
2021/06/10 09:20:32;;;;;;;6.30;4.22;;;18.30;99.90;;;;;;5017396;28;19976;-65
2021/06/10 09:23:26;;;;;;;4.63;3.67;;;18.20;99.90;;;;;;5013230;28;20123;-66
2021/06/10 09:26:04;;;;;;;5.53;3.85;;;18.40;99.90;;;;;;5015662;28;20060;-66
2021/06/10 09:28:33;;;;;;;4.15;3.75;;;18.50;99.90;;;;;;5017629;28;20053;-65
2021/06/10 09:31:01;;;;;;;9.13;4.25;;;18.70;99.90;;;;;;5020053;28;20057;-65
2021/06/10 09:33:43;;;;;;;6.00;4.18;;;18.90;99.90;;;;;;5017532;28;20520;-66
2021/06/10 09:36:17;;;;;;;8.25;3.88;;;19.00;99.90;;;;;;5017876;28;20602;-66
2021/06/10 09:39:05;;;;;;;7.78;4.03;;;18.90;99.90;;;;;;5017691;28;20041;-68
2021/06/10 09:41:33;;;;;;;4.57;3.72;;;18.90;99.90;;;;;;5015115;28;20049;-66
2021/06/10 09:44:00;;;;;;;8.60;6.00;;;18.70;99.90;;;;;;5015924;28;20140;-67
2021/06/10 09:46:27;;;;;;;7.03;3.42;;;18.70;99.90;;;;;;5021743;28;20076;-66
2021/06/10 09:49:07;;;;;;;5.13;4.13;;;18.80;99.90;;;;;;5017662;28;20049;-66
2021/06/10 09:51:34;;;;;;;3.95;3.60;;;18.60;99.90;;;;;;5017561;28;20099;-67
2021/06/10 09:54:01;;;;;;;6.28;4.03;;;18.80;99.90;;;;;;5017552;28;20045;-67
2021/06/10 09:56:28;;;;;;;7.63;4.70;;;18.90;99.90;;;;;;5019471;28;20088;-65
2021/06/10 09:58:57;;;;;;;9.10;4.50;;;19.10;99.90;;;;;;5017228;28;21143;-65
2021/06/10 10:01:26;;;;;;;4.63;3.97;;;19.00;99.90;;;;;;5018257;28;20051;-67
2021/06/10 10:03:54;;;;;;;5.50;3.83;;;19.00;99.90;;;;;;5016276;28;20049;-66
2021/06/10 10:06:24;;;;;;;4.07;3.58;;;19.10;99.90;;;;;;5017236;28;20041;-66
2021/06/10 10:08:59;;;;;;;5.63;4.05;;;19.00;99.90;;;;;;5015765;28;20072;-67
2021/06/10 10:11:28;;;;;;;10.32;4.40;;;18.90;99.90;;;;;;5017636;28;20107;-65
2021/06/10 10:13:57;;;;;;;6.38;3.78;;;19.00;99.90;;;;;;5015238;28;20045;-66
2021/06/10 10:16:27;;;;;;;6.60;5.03;;;18.90;99.90;;;;;;5018347;28;20059;-66
2021/06/10 10:18:56;;;;;;;7.00;4.13;;;18.90;99.90;;;;;;5016608;28;20049;-67
2021/06/10 10:21:28;;;;;;;4.43;3.97;;;18.90;99.90;;;;;;5016988;28;20057;-67
2021/06/10 10:24:01;;;;;;;6.43;5.18;;;18.90;99.90;;;;;;5012402;28;20084;-66
2021/06/10 10:26:29;;;;;;;7.88;3.88;;;18.90;99.90;;;;;;5019211;28;20546;-67
2021/06/10 10:28:57;;;;;;;7.85;3.72;;;18.80;99.90;;;;;;5017762;28;20388;-67
2021/06/10 10:31:26;;;;;;;6.35;3.88;;;18.60;99.90;;;;;;5016324;28;20120;-66
2021/06/10 10:33:53;;;;;;;6.15;4.30;;;18.60;99.90;;;;;;5014554;28;20825;-67
2021/06/10 10:36:34;;;;;;;5.22;4.10;;;18.40;99.90;;;;;;5016184;28;20051;-67
2021/06/10 10:39:07;;;;;;;4.88;4.25;;;18.60;99.90;;;;;;5016591;28;20045;-66
2021/06/10 10:41:54;;;;;;;3.72;2.83;;;18.70;99.90;;;;;;5016833;28;20054;-67
2021/06/10 10:44:31;;;;;;;5.55;3.85;;;18.60;99.90;;;;;;5016867;28;20073;-68
2021/06/10 10:47:10;;;;;;;3.37;2.93;;;18.50;99.90;;;;;;1334085;28;10002745;-66
2021/06/10 10:49:47;;;;;;;5.90;3.95;;;18.50;99.90;;;;;;5015709;28;20053;-67
2021/06/10 10:52:27;;;;;;;6.68;4.35;;;18.40;99.90;;;;;;5019768;28;20057;-66
2021/06/10 10:54:54;;;;;;;6.53;3.83;;;18.30;99.90;;;;;;5017474;28;20123;-67
2021/06/10 10:57:30;;;;;;;7.68;3.75;;;18.30;99.90;;;;;;5018707;28;20153;-66
2021/06/10 10:59:58;;;;;;;4.75;3.58;;;18.30;99.90;;;;;;5016693;28;20713;-66
2021/06/10 11:02:27;;;;;;;3.75;3.45;;;18.20;99.90;;;;;;5018636;28;20097;-66
2021/06/10 11:04:59;;;;;;;;;;;18.30;99.90;;;;;;5018477;28;20099;-67
2021/06/10 11:07:35;;;;;;;;;;;18.50;99.90;;;;;;5019345;28;19928;-67
2021/06/10 11:10:09;;;;;;;5.00;3.75;;;18.50;99.90;;;;;;5017414;28;19948;-67
2021/06/10 11:12:47;;;;;;;3.22;2.92;;;18.90;99.90;;;;;;5018603;28;20041;-66
2021/06/10 11:15:23;;;;;;;3.60;3.30;;;18.80;99.90;;;;;;5019039;28;20550;-66
2021/06/10 11:17:53;;;;;;;7.28;3.78;;;18.90;99.90;;;;;;5018220;28;22335;-66
2021/06/10 11:20:42;;;;;;;3.45;3.10;;;18.90;99.90;;;;;;5023138;28;20045;-67
2021/06/10 11:23:17;;;;;;;3.20;2.90;;;18.70;99.90;;;;;;5018688;28;20060;-66
2021/06/10 11:25:47;;;;;;;6.15;3.33;;;18.70;99.90;;;;;;5016136;28;20147;-67
2021/06/10 11:28:17;;;;;;;3.42;3.13;;;19.00;99.90;;;;;;5016639;28;20041;-66
2021/06/10 11:30:46;;;;;;;7.18;3.45;;;19.10;99.90;;;;;;5017015;28;20160;-66
2021/06/10 11:33:23;;;;;;;5.93;3.10;;;19.20;99.90;;;;;;5018130;28;20053;-67
2021/06/10 11:36:02;;;;;;;3.72;3.40;;;19.00;99.90;;;;;;5021128;28;22539;-66
2021/06/10 11:38:31;;;;;;;5.20;2.95;;;18.70;99.90;;;;;;5020487;28;20053;-67
2021/06/10 11:41:05;;;;;;;4.53;3.67;;;18.80;99.90;;;;;;5019900;28;20099;-67
2021/06/10 11:43:44;;;;;;;3.30;3.00;;;18.80;99.90;;;;;;5020672;28;20423;-66
2021/06/10 11:46:38;;;;;;;5.15;4.00;;;18.70;99.90;;;;;;5020177;28;20144;-67
2021/06/10 11:49:08;;;;;;;7.20;3.55;;;18.50;99.90;;;;;;5021151;28;20045;-67
2021/06/10 11:51:38;;;;;;;3.40;3.08;;;18.90;99.90;;;;;;5011323;28;20487;-67
2021/06/10 11:54:15;;;;;;;5.15;3.63;;;19.30;99.90;;;;;;5013634;28;20545;-67
2021/06/10 11:56:43;;;;;;;4.55;3.25;;;19.40;99.90;;;;;;5012997;28;20056;-67
2021/06/10 11:59:19;;;;;;;3.45;3.15;;;19.50;99.90;;;;;;5013453;28;20130;-66
2021/06/10 12:02:05;;;;;;;4.97;3.85;;;19.50;99.90;;;;;;5012716;28;20139;-67
2021/06/10 12:04:34;;;;;;;4.97;2.85;;;19.60;99.90;;;;;;5013084;28;20057;-66
2021/06/10 12:07:10;;;;;;;3.47;3.17;;;19.60;99.90;;;;;;5014415;28;20052;-67
2021/06/10 12:09:50;;;;;;;4.70;3.25;;;19.70;99.90;;;;;;5010902;28;20056;-67
2021/06/10 12:12:44;;;;;;;4.25;2.83;;;20.00;99.90;;;;;;5013987;28;20057;-67
2021/06/10 12:15:18;;;;;;;6.03;2.78;;;20.20;99.90;;;;;;5011790;28;20160;-66
2021/06/10 12:18:03;;;;;;;3.88;2.97;;;20.10;99.90;;;;;;5011276;28;20053;-66
2021/06/10 12:20:55;;;;;;;3.30;2.65;;;20.30;99.90;;;;;;5013976;28;20037;-67
2021/06/10 12:23:38;;;;;;;5.22;3.65;;;20.30;99.90;;;;;;5014126;28;20144;-67
2021/06/10 12:26:06;;;;;;;;;;;20.30;99.90;;;;;;5015529;28;20111;-67
2021/06/10 12:28:44;;;;;;;3.28;2.50;;;20.40;99.90;;;;;;5015213;28;19929;-67
2021/06/10 12:31:16;;;;;;;3.03;2.78;;;20.50;99.90;;;;;;5015938;28;20081;-67
2021/06/10 12:33:49;;;;;;;2.72;2.53;;;20.70;99.90;;;;;;5017743;28;20445;-66
2021/06/10 12:36:30;;;;;;;4.70;2.60;;;20.80;99.90;;;;;;5021788;28;20041;-67
2021/06/10 12:38:58;;;;;;;2.88;2.38;;;20.80;99.90;;;;;;5052488;28;20049;-67
2021/06/10 12:41:24;;;;;;;4.18;2.15;;;20.80;99.90;;;;;;5019723;28;20049;-67
2021/06/10 12:43:54;;;;;;;5.13;2.70;;;21.20;99.90;;;;;;5018608;28;20395;-66
2021/06/10 12:46:22;;;;;;;5.88;3.05;;;21.40;99.90;;;;;;5019913;28;20735;-66
2021/06/10 12:48:57;;;;;;;1.83;1.73;;;21.60;99.20;;;;;;5021230;28;20046;-66
2021/06/10 12:51:32;;;;;;;3.85;2.13;;;21.40;98.30;;;;;;5019138;28;20049;-67
2021/06/10 12:54:00;;;;;;;4.75;2.20;;;21.20;98.80;;;;;;5019643;28;20085;-67
2021/06/10 12:56:39;;;;;;;3.92;2.50;;;21.10;99.00;;;;;;5020193;28;20131;-66
2021/06/10 12:59:08;;;;;;;2.75;2.55;;;21.20;99.90;;;;;;5021792;28;20110;-66
2021/06/10 13:01:35;;;;;;;4.82;2.63;;;21.30;99.90;;;;;;5018232;28;20157;-66